sensor_id;sensor_type;location;lat;lon;timestamp;P1;durP1;ratioP1;P2;durP2;ratioP2
5209;SDS011;2624;48.048;11.706;2023-05-07T00:03:25;2.10;;;2.00;;
5209;SDS011;2624;48.048;11.706;2023-05-07T00:08:28;6.43;;;2.40;;
5209;SDS011;2624;48.048;11.706;2023-05-07T00:13:30;2.57;;;2.37;;
5209;SDS011;2624;48.048;11.706;2023-05-07T00:18:35;3.10;;;2.57;;
5209;SDS011;2624;48.048;11.706;2023-05-07T00:23:38;2.70;;;2.50;;
5209;SDS011;2624;48.048;11.706;2023-05-07T00:28:40;2.20;;;2.10;;
5209;SDS011;2624;48.048;11.706;2023-05-07T00:33:42;2.20;;;1.80;;
5209;SDS011;2624;48.048;11.706;2023-05-07T00:38:45;3.97;;;2.27;;
5209;SDS011;2624;48.048;11.706;2023-05-07T00:43:47;2.10;;;1.93;;
5209;SDS011;2624;48.048;11.706;2023-05-07T00:48:51;2.63;;;1.80;;
5209;SDS011;2624;48.048;11.706;2023-05-07T00:53:55;2.33;;;2.13;;
5209;SDS011;2624;48.048;11.706;2023-05-07T00:58:57;2.40;;;2.30;;
5209;SDS011;2624;48.048;11.706;2023-05-07T01:03:59;2.73;;;2.20;;
5209;SDS011;2624;48.048;11.706;2023-05-07T01:09:04;2.37;;;2.27;;
5209;SDS011;2624;48.048;11.706;2023-05-07T01:14:06;2.03;;;1.93;;
5209;SDS011;2624;48.048;11.706;2023-05-07T01:19:09;2.03;;;1.93;;
5209;SDS011;2624;48.048;11.706;2023-05-07T01:24:15;2.30;;;2.20;;
5209;SDS011;2624;48.048;11.706;2023-05-07T01:29:18;2.57;;;2.37;;
5209;SDS011;2624;48.048;11.706;2023-05-07T01:34:20;3.53;;;2.17;;
5209;SDS011;2624;48.048;11.706;2023-05-07T01:39:25;2.57;;;2.37;;
5209;SDS011;2624;48.048;11.706;2023-05-07T01:44:27;2.60;;;2.33;;
5209;SDS011;2624;48.048;11.706;2023-05-07T01:49:29;1.70;;;1.70;;
5209;SDS011;2624;48.048;11.706;2023-05-07T01:54:32;2.60;;;1.80;;
5209;SDS011;2624;48.048;11.706;2023-05-07T01:59:34;2.70;;;1.90;;
5209;SDS011;2624;48.048;11.706;2023-05-07T02:04:36;2.43;;;2.33;;
5209;SDS011;2624;48.048;11.706;2023-05-07T02:09:39;5.07;;;2.50;;
5209;SDS011;2624;48.048;11.706;2023-05-07T02:14:41;2.57;;;2.47;;
5209;SDS011;2624;48.048;11.706;2023-05-07T02:19:43;2.40;;;2.30;;
5209;SDS011;2624;48.048;11.706;2023-05-07T02:24:46;3.73;;;2.47;;
5209;SDS011;2624;48.048;11.706;2023-05-07T02:29:49;1.73;;;1.63;;
5209;SDS011;2624;48.048;11.706;2023-05-07T02:34:50;3.90;;;1.70;;
5209;SDS011;2624;48.048;11.706;2023-05-07T02:39:53;2.30;;;2.20;;
5209;SDS011;2624;48.048;11.706;2023-05-07T02:44:55;2.57;;;2.47;;
5209;SDS011;2624;48.048;11.706;2023-05-07T02:49:57;2.47;;;2.30;;
5209;SDS011;2624;48.048;11.706;2023-05-07T02:55:00;2.03;;;1.93;;
5209;SDS011;2624;48.048;11.706;2023-05-07T03:00:10;2.10;;;2.00;;
5209;SDS011;2624;48.048;11.706;2023-05-07T03:05:12;4.40;;;2.50;;
5209;SDS011;2624;48.048;11.706;2023-05-07T03:10:16;2.50;;;2.17;;
5209;SDS011;2624;48.048;11.706;2023-05-07T03:15:18;4.00;;;2.60;;
5209;SDS011;2624;48.048;11.706;2023-05-07T03:20:20;2.10;;;2.00;;
5209;SDS011;2624;48.048;11.706;2023-05-07T03:25:23;1.97;;;1.97;;
5209;SDS011;2624;48.048;11.706;2023-05-07T03:30:25;4.20;;;2.60;;
5209;SDS011;2624;48.048;11.706;2023-05-07T03:35:27;2.00;;;1.90;;
5209;SDS011;2624;48.048;11.706;2023-05-07T03:40:30;2.10;;;2.00;;
5209;SDS011;2624;48.048;11.706;2023-05-07T03:45:31;3.40;;;2.20;;
5209;SDS011;2624;48.048;11.706;2023-05-07T03:50:33;2.43;;;1.93;;
5209;SDS011;2624;48.048;11.706;2023-05-07T03:55:36;2.30;;;2.10;;
5209;SDS011;2624;48.048;11.706;2023-05-07T04:00:38;1.90;;;1.80;;
5209;SDS011;2624;48.048;11.706;2023-05-07T04:05:40;2.67;;;1.87;;
5209;SDS011;2624;48.048;11.706;2023-05-07T04:10:44;1.90;;;1.80;;
5209;SDS011;2624;48.048;11.706;2023-05-07T04:15:45;2.00;;;1.90;;
5209;SDS011;2624;48.048;11.706;2023-05-07T04:20:49;2.30;;;1.87;;
5209;SDS011;2624;48.048;11.706;2023-05-07T04:25:52;3.27;;;2.13;;
5209;SDS011;2624;48.048;11.706;2023-05-07T04:30:54;2.43;;;2.23;;
5209;SDS011;2624;48.048;11.706;2023-05-07T04:35:56;2.10;;;2.00;;
5209;SDS011;2624;48.048;11.706;2023-05-07T04:41:02;2.77;;;1.67;;
5209;SDS011;2624;48.048;11.706;2023-05-07T04:46:05;2.50;;;2.17;;
5209;SDS011;2624;48.048;11.706;2023-05-07T04:51:06;2.00;;;1.90;;
5209;SDS011;2624;48.048;11.706;2023-05-07T04:56:10;2.30;;;2.10;;
5209;SDS011;2624;48.048;11.706;2023-05-07T05:01:11;1.80;;;1.70;;
5209;SDS011;2624;48.048;11.706;2023-05-07T05:06:13;6.60;;;1.90;;
5209;SDS011;2624;48.048;11.706;2023-05-07T05:11:16;1.90;;;1.90;;
5209;SDS011;2624;48.048;11.706;2023-05-07T05:16:18;2.17;;;2.07;;
5209;SDS011;2624;48.048;11.706;2023-05-07T05:21:20;2.70;;;2.33;;
5209;SDS011;2624;48.048;11.706;2023-05-07T05:26:23;2.93;;;2.00;;
5209;SDS011;2624;48.048;11.706;2023-05-07T05:31:26;2.70;;;2.50;;
5209;SDS011;2624;48.048;11.706;2023-05-07T05:36:27;2.20;;;2.10;;
5209;SDS011;2624;48.048;11.706;2023-05-07T05:41:31;7.27;;;2.30;;
5209;SDS011;2624;48.048;11.706;2023-05-07T05:46:33;3.73;;;2.50;;
5209;SDS011;2624;48.048;11.706;2023-05-07T05:51:36;2.57;;;2.47;;
5209;SDS011;2624;48.048;11.706;2023-05-07T05:56:39;3.20;;;3.00;;
5209;SDS011;2624;48.048;11.706;2023-05-07T06:01:41;5.87;;;3.27;;
5209;SDS011;2624;48.048;11.706;2023-05-07T06:06:42;3.10;;;2.90;;
5209;SDS011;2624;48.048;11.706;2023-05-07T06:11:47;2.93;;;2.70;;
5209;SDS011;2624;48.048;11.706;2023-05-07T06:16:48;4.17;;;3.40;;
5209;SDS011;2624;48.048;11.706;2023-05-07T06:21:50;3.07;;;2.87;;
5209;SDS011;2624;48.048;11.706;2023-05-07T06:26:53;3.60;;;3.30;;
5209;SDS011;2624;48.048;11.706;2023-05-07T06:31:55;2.90;;;2.70;;
5209;SDS011;2624;48.048;11.706;2023-05-07T06:36:57;3.00;;;2.80;;
5209;SDS011;2624;48.048;11.706;2023-05-07T06:42:00;3.07;;;2.87;;
5209;SDS011;2624;48.048;11.706;2023-05-07T06:47:02;2.90;;;2.60;;
5209;SDS011;2624;48.048;11.706;2023-05-07T06:52:05;12.87;;;3.30;;
5209;SDS011;2624;48.048;11.706;2023-05-07T06:57:08;4.67;;;3.00;;
5209;SDS011;2624;48.048;11.706;2023-05-07T07:02:10;3.37;;;3.17;;
5209;SDS011;2624;48.048;11.706;2023-05-07T07:07:11;2.57;;;2.43;;
5209;SDS011;2624;48.048;11.706;2023-05-07T07:12:14;2.37;;;2.23;;
5209;SDS011;2624;48.048;11.706;2023-05-07T07:17:16;2.57;;;2.33;;
5209;SDS011;2624;48.048;11.706;2023-05-07T07:22:18;4.40;;;3.73;;
5209;SDS011;2624;48.048;11.706;2023-05-07T07:27:21;3.53;;;3.13;;
5209;SDS011;2624;48.048;11.706;2023-05-07T07:32:23;4.97;;;2.77;;
5209;SDS011;2624;48.048;11.706;2023-05-07T07:37:25;7.73;;;2.33;;
5209;SDS011;2624;48.048;11.706;2023-05-07T07:42:28;2.90;;;2.70;;
5209;SDS011;2624;48.048;11.706;2023-05-07T07:47:30;2.70;;;2.47;;
5209;SDS011;2624;48.048;11.706;2023-05-07T07:52:32;4.10;;;2.23;;
5209;SDS011;2624;48.048;11.706;2023-05-07T07:57:35;7.50;;;3.30;;
5209;SDS011;2624;48.048;11.706;2023-05-07T08:02:37;3.23;;;2.90;;
5209;SDS011;2624;48.048;11.706;2023-05-07T08:07:39;4.40;;;2.80;;
5209;SDS011;2624;48.048;11.706;2023-05-07T08:12:42;2.33;;;2.13;;
5209;SDS011;2624;48.048;11.706;2023-05-07T08:17:43;2.07;;;1.93;;
5209;SDS011;2624;48.048;11.706;2023-05-07T08:22:45;2.57;;;2.47;;
5209;SDS011;2624;48.048;11.706;2023-05-07T08:27:48;2.07;;;1.97;;
5209;SDS011;2624;48.048;11.706;2023-05-07T08:32:50;2.90;;;2.80;;
5209;SDS011;2624;48.048;11.706;2023-05-07T08:37:52;2.70;;;2.20;;
5209;SDS011;2624;48.048;11.706;2023-05-07T08:42:55;2.20;;;2.10;;
5209;SDS011;2624;48.048;11.706;2023-05-07T08:47:58;2.23;;;2.03;;
5209;SDS011;2624;48.048;11.706;2023-05-07T08:53:03;4.50;;;2.70;;
5209;SDS011;2624;48.048;11.706;2023-05-07T08:58:06;4.77;;;2.40;;
5209;SDS011;2624;48.048;11.706;2023-05-07T09:03:08;2.50;;;2.30;;
5209;SDS011;2624;48.048;11.706;2023-05-07T09:08:14;7.70;;;3.00;;
5209;SDS011;2624;48.048;11.706;2023-05-07T09:13:18;2.13;;;2.03;;
5209;SDS011;2624;48.048;11.706;2023-05-07T09:18:19;3.60;;;2.27;;
5209;SDS011;2624;48.048;11.706;2023-05-07T09:23:21;2.10;;;1.90;;
5209;SDS011;2624;48.048;11.706;2023-05-07T09:28:24;3.90;;;2.57;;
5209;SDS011;2624;48.048;11.706;2023-05-07T09:33:26;2.47;;;2.27;;
5209;SDS011;2624;48.048;11.706;2023-05-07T09:38:29;2.83;;;2.50;;
5209;SDS011;2624;48.048;11.706;2023-05-07T09:43:33;2.73;;;2.50;;
5209;SDS011;2624;48.048;11.706;2023-05-07T09:48:37;2.20;;;2.10;;
5209;SDS011;2624;48.048;11.706;2023-05-07T09:53:40;5.77;;;1.87;;
5209;SDS011;2624;48.048;11.706;2023-05-07T09:58:44;2.10;;;2.00;;
5209;SDS011;2624;48.048;11.706;2023-05-07T10:03:47;3.97;;;2.67;;
5209;SDS011;2624;48.048;11.706;2023-05-07T10:08:51;2.57;;;2.40;;
5209;SDS011;2624;48.048;11.706;2023-05-07T10:13:55;1.90;;;1.80;;
5209;SDS011;2624;48.048;11.706;2023-05-07T10:18:57;3.40;;;1.70;;
5209;SDS011;2624;48.048;11.706;2023-05-07T10:24:02;1.37;;;1.27;;
5209;SDS011;2624;48.048;11.706;2023-05-07T10:29:13;2.73;;;1.33;;
5209;SDS011;2624;48.048;11.706;2023-05-07T10:34:20;1.23;;;1.13;;
5209;SDS011;2624;48.048;11.706;2023-05-07T10:39:25;2.63;;;1.70;;
5209;SDS011;2624;48.048;11.706;2023-05-07T10:44:29;3.07;;;1.50;;
5209;SDS011;2624;48.048;11.706;2023-05-07T10:49:31;1.53;;;1.50;;
5209;SDS011;2624;48.048;11.706;2023-05-07T10:54:33;1.33;;;1.33;;
5209;SDS011;2624;48.048;11.706;2023-05-07T10:59:39;1.73;;;1.63;;
5209;SDS011;2624;48.048;11.706;2023-05-07T11:04:44;1.37;;;1.13;;
5209;SDS011;2624;48.048;11.706;2023-05-07T11:09:55;1.07;;;1.07;;
5209;SDS011;2624;48.048;11.706;2023-05-07T11:15:05;1.00;;;1.00;;
5209;SDS011;2624;48.048;11.706;2023-05-07T11:20:08;1.57;;;1.53;;
5209;SDS011;2624;48.048;11.706;2023-05-07T11:25:11;2.53;;;1.70;;
5209;SDS011;2624;48.048;11.706;2023-05-07T11:30:20;1.77;;;1.67;;
5209;SDS011;2624;48.048;11.706;2023-05-07T11:35:22;4.30;;;1.83;;
5209;SDS011;2624;48.048;11.706;2023-05-07T11:40:25;3.87;;;1.67;;
5209;SDS011;2624;48.048;11.706;2023-05-07T11:45:30;1.67;;;1.57;;
5209;SDS011;2624;48.048;11.706;2023-05-07T11:50:31;3.50;;;1.83;;
5209;SDS011;2624;48.048;11.706;2023-05-07T11:55:33;1.90;;;1.80;;
5209;SDS011;2624;48.048;11.706;2023-05-07T12:00:36;4.93;;;1.77;;
5209;SDS011;2624;48.048;11.706;2023-05-07T12:05:38;6.00;;;2.17;;
5209;SDS011;2624;48.048;11.706;2023-05-07T12:10:41;4.23;;;1.93;;
5209;SDS011;2624;48.048;11.706;2023-05-07T12:15:45;5.03;;;1.97;;
5209;SDS011;2624;48.048;11.706;2023-05-07T12:20:47;2.67;;;2.47;;
5209;SDS011;2624;48.048;11.706;2023-05-07T12:25:49;2.57;;;2.37;;
5209;SDS011;2624;48.048;11.706;2023-05-07T12:30:52;2.50;;;2.40;;
5209;SDS011;2624;48.048;11.706;2023-05-07T12:35:54;2.43;;;2.23;;
5209;SDS011;2624;48.048;11.706;2023-05-07T12:40:57;2.73;;;2.50;;
5209;SDS011;2624;48.048;11.706;2023-05-07T12:46:01;2.20;;;2.10;;
5209;SDS011;2624;48.048;11.706;2023-05-07T12:51:04;2.37;;;2.27;;
5209;SDS011;2624;48.048;11.706;2023-05-07T12:56:07;2.00;;;1.50;;
5209;SDS011;2624;48.048;11.706;2023-05-07T13:01:11;2.20;;;2.10;;
5209;SDS011;2624;48.048;11.706;2023-05-07T13:06:15;2.83;;;2.10;;
5209;SDS011;2624;48.048;11.706;2023-05-07T13:11:17;1.70;;;1.60;;
5209;SDS011;2624;48.048;11.706;2023-05-07T13:16:20;2.60;;;1.70;;
5209;SDS011;2624;48.048;11.706;2023-05-07T13:21:22;1.60;;;1.60;;
5209;SDS011;2624;48.048;11.706;2023-05-07T13:26:23;2.03;;;1.93;;
5209;SDS011;2624;48.048;11.706;2023-05-07T13:31:27;1.80;;;1.80;;
5209;SDS011;2624;48.048;11.706;2023-05-07T13:36:28;2.47;;;2.37;;
5209;SDS011;2624;48.048;11.706;2023-05-07T13:41:33;1.93;;;1.83;;
5209;SDS011;2624;48.048;11.706;2023-05-07T13:46:36;2.30;;;2.20;;
5209;SDS011;2624;48.048;11.706;2023-05-07T13:51:38;2.00;;;1.90;;
5209;SDS011;2624;48.048;11.706;2023-05-07T13:56:40;3.03;;;2.10;;
5209;SDS011;2624;48.048;11.706;2023-05-07T14:01:43;2.50;;;2.30;;
5209;SDS011;2624;48.048;11.706;2023-05-07T14:06:45;1.63;;;1.63;;
5209;SDS011;2624;48.048;11.706;2023-05-07T14:11:47;5.33;;;2.50;;
5209;SDS011;2624;48.048;11.706;2023-05-07T14:16:52;2.00;;;1.90;;
5209;SDS011;2624;48.048;11.706;2023-05-07T14:21:54;2.37;;;2.20;;
5209;SDS011;2624;48.048;11.706;2023-05-07T14:26:56;4.13;;;2.30;;
5209;SDS011;2624;48.048;11.706;2023-05-07T14:31:59;3.23;;;2.10;;
5209;SDS011;2624;48.048;11.706;2023-05-07T14:37:01;2.00;;;1.73;;
5209;SDS011;2624;48.048;11.706;2023-05-07T14:42:02;2.13;;;2.00;;
5209;SDS011;2624;48.048;11.706;2023-05-07T14:47:06;2.13;;;2.03;;
5209;SDS011;2624;48.048;11.706;2023-05-07T14:52:07;8.20;;;2.03;;
5209;SDS011;2624;48.048;11.706;2023-05-07T14:57:10;5.03;;;2.00;;
5209;SDS011;2624;48.048;11.706;2023-05-07T15:02:14;9.63;;;2.43;;
5209;SDS011;2624;48.048;11.706;2023-05-07T15:07:17;2.33;;;1.63;;
5209;SDS011;2624;48.048;11.706;2023-05-07T15:12:18;4.93;;;2.30;;
5209;SDS011;2624;48.048;11.706;2023-05-07T15:17:22;3.03;;;1.93;;
5209;SDS011;2624;48.048;11.706;2023-05-07T15:22:23;1.63;;;1.53;;
5209;SDS011;2624;48.048;11.706;2023-05-07T15:27:25;1.60;;;1.60;;
5209;SDS011;2624;48.048;11.706;2023-05-07T15:32:28;1.53;;;1.53;;
5209;SDS011;2624;48.048;11.706;2023-05-07T15:37:30;1.80;;;1.73;;
5209;SDS011;2624;48.048;11.706;2023-05-07T15:42:32;1.50;;;1.50;;
5209;SDS011;2624;48.048;11.706;2023-05-07T15:47:36;1.63;;;1.53;;
5209;SDS011;2624;48.048;11.706;2023-05-07T15:52:38;1.30;;;1.30;;
5209;SDS011;2624;48.048;11.706;2023-05-07T15:57:40;1.93;;;1.67;;
5209;SDS011;2624;48.048;11.706;2023-05-07T16:02:44;1.70;;;1.70;;
5209;SDS011;2624;48.048;11.706;2023-05-07T16:07:45;1.50;;;1.40;;
5209;SDS011;2624;48.048;11.706;2023-05-07T16:12:47;1.50;;;1.50;;
5209;SDS011;2624;48.048;11.706;2023-05-07T16:17:50;1.27;;;1.27;;
5209;SDS011;2624;48.048;11.706;2023-05-07T16:22:56;2.33;;;1.43;;
5209;SDS011;2624;48.048;11.706;2023-05-07T16:27:58;1.67;;;1.50;;
5209;SDS011;2624;48.048;11.706;2023-05-07T16:33:01;1.80;;;1.70;;
5209;SDS011;2624;48.048;11.706;2023-05-07T16:38:03;1.40;;;1.40;;
5209;SDS011;2624;48.048;11.706;2023-05-07T16:43:08;1.57;;;1.47;;
5209;SDS011;2624;48.048;11.706;2023-05-07T16:48:11;1.70;;;1.60;;
5209;SDS011;2624;48.048;11.706;2023-05-07T16:53:13;1.93;;;1.83;;
5209;SDS011;2624;48.048;11.706;2023-05-07T16:58:15;2.33;;;1.47;;
5209;SDS011;2624;48.048;11.706;2023-05-07T17:03:18;1.80;;;1.70;;
5209;SDS011;2624;48.048;11.706;2023-05-07T17:08:20;2.70;;;2.00;;
5209;SDS011;2624;48.048;11.706;2023-05-07T17:13:22;1.30;;;1.30;;
5209;SDS011;2624;48.048;11.706;2023-05-07T17:18:25;1.63;;;1.60;;
5209;SDS011;2624;48.048;11.706;2023-05-07T17:23:27;1.20;;;1.20;;
5209;SDS011;2624;48.048;11.706;2023-05-07T17:28:29;1.47;;;1.43;;
5209;SDS011;2624;48.048;11.706;2023-05-07T17:33:32;1.67;;;1.57;;
5209;SDS011;2624;48.048;11.706;2023-05-07T17:38:34;1.97;;;1.13;;
5209;SDS011;2624;48.048;11.706;2023-05-07T17:43:35;5.60;;;1.03;;
5209;SDS011;2624;48.048;11.706;2023-05-07T17:48:38;1.50;;;1.40;;
5209;SDS011;2624;48.048;11.706;2023-05-07T17:53:40;2.50;;;1.57;;
5209;SDS011;2624;48.048;11.706;2023-05-07T17:58:42;1.43;;;1.43;;
5209;SDS011;2624;48.048;11.706;2023-05-07T18:03:45;3.03;;;1.50;;
5209;SDS011;2624;48.048;11.706;2023-05-07T18:08:47;1.70;;;1.60;;
5209;SDS011;2624;48.048;11.706;2023-05-07T18:13:49;1.63;;;1.20;;
5209;SDS011;2624;48.048;11.706;2023-05-07T18:18:53;0.93;;;0.93;;
5209;SDS011;2624;48.048;11.706;2023-05-07T18:23:54;1.10;;;1.10;;
5209;SDS011;2624;48.048;11.706;2023-05-07T18:28:56;1.13;;;1.13;;
5209;SDS011;2624;48.048;11.706;2023-05-07T18:33:59;1.57;;;1.47;;
5209;SDS011;2624;48.048;11.706;2023-05-07T18:39:01;9.13;;;1.67;;
5209;SDS011;2624;48.048;11.706;2023-05-07T18:44:03;2.70;;;1.40;;
5209;SDS011;2624;48.048;11.706;2023-05-07T18:49:07;6.00;;;1.90;;
5209;SDS011;2624;48.048;11.706;2023-05-07T18:54:09;1.20;;;1.20;;
5209;SDS011;2624;48.048;11.706;2023-05-07T18:59:11;1.63;;;1.53;;
5209;SDS011;2624;48.048;11.706;2023-05-07T19:04:14;2.37;;;2.27;;
5209;SDS011;2624;48.048;11.706;2023-05-07T19:09:17;1.50;;;1.40;;
5209;SDS011;2624;48.048;11.706;2023-05-07T19:14:18;3.70;;;1.40;;
5209;SDS011;2624;48.048;11.706;2023-05-07T19:19:21;1.60;;;1.50;;
5209;SDS011;2624;48.048;11.706;2023-05-07T19:24:23;2.80;;;1.40;;
5209;SDS011;2624;48.048;11.706;2023-05-07T19:29:25;1.40;;;1.37;;
5209;SDS011;2624;48.048;11.706;2023-05-07T19:34:28;1.50;;;1.50;;
5209;SDS011;2624;48.048;11.706;2023-05-07T19:39:30;1.50;;;1.50;;
5209;SDS011;2624;48.048;11.706;2023-05-07T19:44:32;2.90;;;1.67;;
5209;SDS011;2624;48.048;11.706;2023-05-07T19:49:35;1.10;;;1.10;;
5209;SDS011;2624;48.048;11.706;2023-05-07T19:54:37;5.73;;;1.90;;
5209;SDS011;2624;48.048;11.706;2023-05-07T19:59:39;1.97;;;1.50;;
5209;SDS011;2624;48.048;11.706;2023-05-07T20:04:42;2.17;;;2.03;;
5209;SDS011;2624;48.048;11.706;2023-05-07T20:09:44;1.87;;;1.77;;
5209;SDS011;2624;48.048;11.706;2023-05-07T20:14:45;1.60;;;1.50;;
5209;SDS011;2624;48.048;11.706;2023-05-07T20:19:48;1.50;;;1.50;;
5209;SDS011;2624;48.048;11.706;2023-05-07T20:24:50;2.20;;;1.47;;
5209;SDS011;2624;48.048;11.706;2023-05-07T20:29:52;2.63;;;1.90;;
5209;SDS011;2624;48.048;11.706;2023-05-07T20:34:55;1.63;;;1.53;;
5209;SDS011;2624;48.048;11.706;2023-05-07T20:39:57;1.93;;;1.73;;
5209;SDS011;2624;48.048;11.706;2023-05-07T20:44:59;2.10;;;2.00;;
5209;SDS011;2624;48.048;11.706;2023-05-07T20:50:02;1.93;;;1.83;;
5209;SDS011;2624;48.048;11.706;2023-05-07T20:55:05;3.93;;;2.10;;
5209;SDS011;2624;48.048;11.706;2023-05-07T21:00:08;2.20;;;2.10;;
5209;SDS011;2624;48.048;11.706;2023-05-07T21:05:11;2.00;;;1.90;;
5209;SDS011;2624;48.048;11.706;2023-05-07T21:10:13;2.43;;;2.20;;
5209;SDS011;2624;48.048;11.706;2023-05-07T21:15:15;2.10;;;2.00;;
5209;SDS011;2624;48.048;11.706;2023-05-07T21:20:18;4.00;;;2.03;;
5209;SDS011;2624;48.048;11.706;2023-05-07T21:25:20;2.53;;;2.33;;
5209;SDS011;2624;48.048;11.706;2023-05-07T21:30:22;5.20;;;2.40;;
5209;SDS011;2624;48.048;11.706;2023-05-07T21:35:25;2.30;;;2.10;;
5209;SDS011;2624;48.048;11.706;2023-05-07T21:40:27;2.47;;;2.27;;
5209;SDS011;2624;48.048;11.706;2023-05-07T21:45:28;2.40;;;2.07;;
5209;SDS011;2624;48.048;11.706;2023-05-07T21:50:32;3.00;;;2.83;;
5209;SDS011;2624;48.048;11.706;2023-05-07T21:55:33;2.87;;;2.70;;
5209;SDS011;2624;48.048;11.706;2023-05-07T22:00:35;3.80;;;2.63;;
5209;SDS011;2624;48.048;11.706;2023-05-07T22:05:38;2.50;;;2.40;;
5209;SDS011;2624;48.048;11.706;2023-05-07T22:10:40;7.93;;;2.60;;
5209;SDS011;2624;48.048;11.706;2023-05-07T22:15:42;3.77;;;2.70;;
5209;SDS011;2624;48.048;11.706;2023-05-07T22:20:45;3.10;;;2.90;;
5209;SDS011;2624;48.048;11.706;2023-05-07T22:25:47;7.23;;;2.97;;
5209;SDS011;2624;48.048;11.706;2023-05-07T22:30:48;2.73;;;2.60;;
5209;SDS011;2624;48.048;11.706;2023-05-07T22:35:52;9.30;;;3.30;;
5209;SDS011;2624;48.048;11.706;2023-05-07T22:40:54;3.17;;;2.97;;
5209;SDS011;2624;48.048;11.706;2023-05-07T22:45:59;3.43;;;2.97;;
5209;SDS011;2624;48.048;11.706;2023-05-07T22:51:02;5.40;;;3.50;;
5209;SDS011;2624;48.048;11.706;2023-05-07T22:56:04;4.03;;;3.10;;
5209;SDS011;2624;48.048;11.706;2023-05-07T23:01:10;5.73;;;3.10;;
5209;SDS011;2624;48.048;11.706;2023-05-07T23:06:13;4.43;;;3.47;;
5209;SDS011;2624;48.048;11.706;2023-05-07T23:11:15;3.60;;;3.40;;
5209;SDS011;2624;48.048;11.706;2023-05-07T23:16:17;3.47;;;3.27;;
5209;SDS011;2624;48.048;11.706;2023-05-07T23:21:20;3.07;;;2.87;;
5209;SDS011;2624;48.048;11.706;2023-05-07T23:26:25;4.00;;;3.70;;
5209;SDS011;2624;48.048;11.706;2023-05-07T23:31:27;8.07;;;4.50;;
5209;SDS011;2624;48.048;11.706;2023-05-07T23:36:30;5.03;;;4.53;;
5209;SDS011;2624;48.048;11.706;2023-05-07T23:41:32;6.23;;;3.80;;
5209;SDS011;2624;48.048;11.706;2023-05-07T23:46:34;5.83;;;4.33;;
5209;SDS011;2624;48.048;11.706;2023-05-07T23:51:37;9.10;;;5.10;;
5209;SDS011;2624;48.048;11.706;2023-05-07T23:56:38;5.43;;;4.07;;
